createdAt,value
2017-09-18T00:01:03.346Z,12.47
2017-09-18T00:03:32.539Z,8.77
2017-09-18T00:06:01.156Z,9.90
2017-09-18T00:08:29.415Z,9.57
2017-09-18T00:10:57.700Z,10.67
2017-09-18T00:13:26.287Z,10.63
2017-09-18T00:15:54.588Z,9.90
2017-09-18T00:18:22.853Z,9.60
2017-09-18T00:20:51.476Z,11.77
2017-09-18T00:23:19.775Z,9.23
2017-09-18T00:25:48.038Z,10.20
2017-09-18T00:28:17.431Z,10.80
2017-09-18T00:30:45.687Z,9.90
2017-09-18T00:33:13.981Z,10.23
2017-09-18T00:35:42.559Z,11.23
2017-09-18T00:38:10.844Z,9.53
2017-09-18T00:40:39.132Z,10.00
2017-09-18T00:43:08.235Z,15.70
2017-09-18T00:45:36.538Z,11.30
2017-09-18T00:48:04.832Z,11.20
2017-09-18T00:50:34.169Z,10.00
2017-09-18T00:53:02.457Z,9.33
2017-09-18T00:55:30.724Z,10.33
2017-09-18T00:57:59.674Z,13.87
2017-09-18T01:00:27.962Z,9.07
2017-09-18T01:02:57.108Z,9.23
2017-09-18T01:05:26.165Z,9.13
2017-09-18T01:07:54.494Z,9.33
2017-09-18T01:10:22.834Z,10.10
2017-09-18T01:12:51.183Z,8.43
2017-09-18T01:15:19.460Z,9.27
2017-09-18T01:17:47.790Z,8.13
2017-09-18T01:20:16.144Z,10.30
2017-09-18T01:22:44.485Z,9.67
2017-09-18T01:25:13.452Z,8.17
2017-09-18T01:27:41.783Z,10.60
2017-09-18T01:30:10.340Z,10.30
2017-09-18T01:32:38.705Z,7.50
2017-09-18T01:35:07.816Z,7.50
2017-09-18T01:37:36.937Z,7.57
2017-09-18T01:40:06.023Z,7.40
2017-09-18T01:42:35.365Z,7.70
2017-09-18T01:45:03.721Z,7.23
2017-09-18T01:47:32.032Z,7.77
2017-09-18T01:50:00.324Z,7.17
2017-09-18T01:52:28.827Z,8.97
2017-09-18T01:54:57.937Z,6.17
2017-09-18T01:57:27.018Z,7.33
2017-09-18T01:59:55.331Z,7.20
2017-09-18T02:02:24.385Z,9.97
2017-09-18T02:04:54.306Z,8.20
2017-09-18T02:07:22.652Z,7.10
2017-09-18T02:09:51.715Z,9.90
2017-09-18T02:12:21.550Z,8.60
2017-09-18T02:14:49.834Z,7.80
2017-09-18T02:17:18.895Z,7.90
2017-09-18T02:19:47.179Z,8.40
2017-09-18T02:22:15.483Z,8.53
2017-09-18T02:24:43.787Z,10.30
2017-09-18T02:27:12.831Z,8.37
2017-09-18T02:29:41.139Z,11.93
2017-09-18T02:32:09.458Z,7.70
2017-09-18T02:34:37.807Z,7.60
2017-09-18T02:37:07.060Z,8.13
2017-09-18T02:39:35.359Z,7.70
2017-09-18T02:42:03.663Z,8.20
2017-09-18T02:44:33.046Z,8.23
2017-09-18T02:47:01.337Z,8.37
2017-09-18T02:49:29.604Z,9.03
2017-09-18T02:51:57.919Z,7.63
2017-09-18T02:54:26.228Z,9.03
2017-09-18T02:56:55.286Z,10.60
2017-09-18T02:59:23.611Z,8.00
2017-09-18T03:01:52.724Z,8.33
2017-09-18T03:04:23.642Z,8.80
2017-09-18T03:06:52.751Z,8.90
2017-09-18T03:09:22.182Z,8.83
2017-09-18T03:11:50.824Z,8.10
2017-09-18T03:14:19.084Z,8.30
2017-09-18T03:16:48.060Z,9.43
2017-09-18T03:19:16.682Z,9.37
2017-09-18T03:21:44.959Z,9.40
2017-09-18T03:24:13.268Z,9.07
2017-09-18T03:26:42.441Z,9.57
2017-09-18T03:29:10.724Z,9.50
2017-09-18T03:31:39.421Z,8.53
2017-09-18T03:34:07.727Z,8.90
2017-09-18T03:36:36.783Z,9.33
2017-09-18T03:39:05.143Z,8.73
2017-09-18T03:41:33.437Z,8.47
2017-09-18T03:44:02.047Z,9.83
2017-09-18T03:46:30.813Z,10.03
2017-09-18T03:48:59.074Z,9.00
2017-09-18T03:51:27.365Z,8.80
2017-09-18T03:53:55.657Z,9.10
2017-09-18T03:56:24.386Z,9.60
2017-09-18T03:58:52.682Z,9.87
2017-09-18T04:01:21.003Z,11.20
2017-09-18T04:03:49.365Z,11.73
2017-09-18T04:06:18.439Z,11.00
2017-09-18T04:08:47.010Z,11.23
2017-09-18T04:11:15.295Z,10.80
2017-09-18T04:13:44.503Z,11.47
2017-09-18T04:16:13.210Z,12.30
2017-09-18T04:18:43.140Z,12.73
2017-09-18T04:21:11.468Z,10.03
2017-09-18T04:23:40.567Z,12.63
2017-09-18T04:26:09.629Z,11.57
2017-09-18T04:28:38.956Z,12.67
2017-09-18T04:31:07.246Z,12.20
2017-09-18T04:33:35.582Z,13.87
2017-09-18T04:36:04.701Z,21.43
2017-09-18T04:38:33.852Z,12.43
2017-09-18T04:41:02.166Z,11.47
2017-09-18T04:43:31.263Z,12.33
2017-09-18T04:45:59.591Z,11.67
2017-09-18T04:48:27.901Z,12.70
2017-09-18T04:50:57.725Z,12.90
2017-09-18T04:53:26.053Z,20.10
2017-09-18T04:55:54.383Z,16.60
2017-09-18T04:58:22.684Z,13.50
2017-09-18T05:00:51.050Z,12.70
2017-09-18T05:03:19.981Z,14.03
2017-09-18T05:05:49.120Z,16.17
2017-09-18T05:08:17.423Z,13.97
2017-09-18T05:10:45.742Z,15.60
2017-09-18T05:13:14.111Z,14.57
2017-09-18T05:15:43.189Z,14.20
2017-09-18T05:18:11.520Z,15.57
2017-09-18T05:20:40.612Z,15.87
2017-09-18T05:23:08.985Z,17.70
2017-09-18T05:25:37.304Z,20.60
2017-09-18T05:28:05.650Z,13.13
2017-09-18T05:30:33.998Z,17.80
2017-09-18T05:33:02.294Z,15.50
2017-09-18T05:35:32.096Z,15.50
2017-09-18T05:38:01.158Z,13.80
2017-09-18T05:40:29.490Z,17.03
2017-09-18T05:42:57.803Z,16.80
2017-09-18T05:45:26.250Z,15.83
2017-09-18T05:47:54.674Z,15.33
2017-09-18T05:50:22.959Z,13.33
2017-09-18T05:52:51.253Z,14.63
2017-09-18T05:55:19.564Z,16.13
2017-09-18T05:57:47.837Z,14.10
2017-09-18T06:00:16.125Z,15.40
2017-09-18T06:02:44.414Z,12.67
2017-09-18T06:05:13.012Z,14.37
2017-09-18T06:07:41.975Z,13.77
2017-09-18T06:10:10.296Z,14.13
2017-09-18T06:12:39.323Z,14.60
2017-09-18T06:15:08.440Z,14.60
2017-09-18T06:17:37.507Z,13.60
2017-09-18T06:20:06.171Z,13.87
2017-09-18T06:22:34.463Z,14.30
2017-09-18T06:25:02.784Z,13.07
2017-09-18T06:27:31.893Z,12.23
2017-09-18T06:30:00.928Z,11.87
2017-09-18T06:32:29.259Z,11.07
2017-09-18T06:34:58.335Z,13.03
2017-09-18T06:37:27.470Z,11.20
2017-09-18T06:39:56.579Z,10.50
2017-09-18T06:42:25.647Z,12.23
2017-09-18T06:44:53.963Z,9.67
2017-09-18T06:47:22.266Z,10.80
2017-09-18T06:49:50.609Z,10.23
2017-09-18T06:52:18.906Z,9.93
2017-09-18T06:54:47.961Z,10.33
2017-09-18T06:57:17.815Z,10.90
2017-09-18T06:59:46.166Z,8.13
2017-09-18T07:02:14.444Z,9.50
2017-09-18T07:04:42.734Z,10.13
2017-09-18T07:07:11.118Z,9.13
2017-09-18T07:09:39.398Z,9.23
2017-09-18T07:12:09.195Z,7.93
2017-09-18T07:14:37.498Z,8.43
2017-09-18T07:17:05.823Z,7.87
2017-09-18T07:19:34.142Z,7.80
2017-09-18T07:22:02.483Z,9.23
2017-09-18T07:24:31.037Z,10.40
2017-09-18T07:26:59.385Z,7.23
2017-09-18T07:29:27.678Z,8.90
2017-09-18T07:31:55.990Z,8.10
2017-09-18T07:34:24.254Z,7.20
2017-09-18T07:36:52.640Z,7.23
2017-09-18T07:39:20.946Z,8.00
2017-09-18T07:41:50.052Z,7.60
2017-09-18T07:44:19.144Z,8.07
2017-09-18T07:46:48.895Z,8.60
2017-09-18T07:49:17.547Z,8.00
2017-09-18T07:51:47.507Z,7.87
2017-09-18T07:54:17.290Z,8.53
2017-09-18T07:56:47.532Z,7.87
2017-09-18T07:59:17.711Z,9.43
2017-09-18T08:01:47.501Z,7.47
2017-09-18T08:04:17.342Z,9.10
2017-09-18T08:06:47.408Z,8.57
2017-09-18T08:09:17.263Z,8.93
2017-09-18T08:11:47.134Z,8.57
2017-09-18T08:14:16.959Z,8.50
2017-09-18T08:16:46.785Z,8.50
2017-09-18T08:19:16.607Z,8.20
2017-09-18T08:21:46.443Z,8.63
2017-09-18T08:24:16.268Z,8.53
2017-09-18T08:26:46.094Z,9.63
2017-09-18T08:29:15.973Z,9.77
2017-09-18T08:31:45.810Z,8.53
2017-09-18T08:34:15.698Z,9.40
2017-09-18T08:36:45.543Z,7.73
2017-09-18T08:39:15.681Z,9.63
2017-09-18T08:41:45.489Z,8.10
2017-09-18T08:44:15.329Z,8.43
2017-09-18T08:46:45.161Z,7.87
2017-09-18T08:49:15.513Z,6.40
2017-09-18T08:51:45.730Z,7.23
2017-09-18T08:54:15.611Z,6.47
2017-09-18T08:56:45.459Z,8.20
2017-09-18T08:59:15.367Z,6.57
2017-09-18T09:01:45.277Z,6.93
2017-09-18T09:04:15.104Z,6.30
2017-09-18T09:06:45.679Z,8.27
2017-09-18T09:09:15.477Z,5.43
2017-09-18T09:11:45.294Z,6.20
2017-09-18T09:14:15.142Z,5.57
2017-09-18T09:16:45.891Z,5.53
2017-09-18T09:19:16.463Z,4.28
2017-09-18T09:21:46.287Z,5.93
2017-09-18T09:24:16.078Z,5.03
2017-09-18T09:26:46.607Z,5.13
2017-09-18T09:29:16.439Z,4.67
2017-09-18T09:31:46.260Z,6.33
2017-09-18T09:34:16.087Z,5.23
2017-09-18T09:36:45.964Z,5.25
2017-09-18T09:39:15.899Z,5.57
2017-09-18T09:41:45.718Z,5.07
2017-09-18T09:44:16.178Z,7.00
2017-09-18T09:46:46.088Z,5.27
2017-09-18T09:49:15.936Z,4.97
2017-09-18T09:51:45.755Z,8.50
2017-09-18T09:54:15.579Z,4.70
2017-09-18T09:56:45.645Z,4.63
2017-09-18T09:59:16.365Z,4.33
2017-09-18T10:01:46.194Z,4.67
2017-09-18T10:04:16.403Z,5.53
2017-09-18T10:06:46.209Z,2.63
2017-09-18T10:09:16.023Z,3.27
2017-09-18T10:11:45.836Z,3.40
2017-09-18T10:14:15.677Z,3.85
2017-09-18T10:16:45.519Z,3.40
2017-09-18T10:19:15.747Z,3.83
2017-09-18T10:21:45.609Z,3.67
2017-09-18T10:24:15.456Z,2.90
2017-09-18T10:26:45.350Z,4.90
2017-09-18T10:29:15.157Z,5.27
2017-09-18T10:31:46.686Z,4.73
2017-09-18T10:34:16.548Z,13.43
2017-09-18T10:36:46.436Z,3.37
2017-09-18T10:39:16.231Z,3.87
2017-09-18T10:41:46.040Z,2.53
2017-09-18T10:44:15.872Z,2.97
2017-09-18T10:46:45.682Z,2.10
2017-09-18T10:49:14.934Z,1.73
2017-09-18T10:51:43.217Z,3.80
2017-09-18T10:54:13.155Z,2.90
2017-09-18T10:56:42.978Z,1.93
2017-09-18T10:59:12.798Z,2.50
2017-09-18T11:01:42.636Z,4.60
2017-09-18T11:04:11.567Z,4.47
2017-09-18T11:06:39.878Z,4.10
2017-09-18T11:09:08.161Z,3.40
2017-09-18T11:11:38.154Z,3.23
2017-09-18T11:14:07.969Z,6.87
2017-09-18T11:16:37.903Z,1.80
2017-09-18T11:19:07.707Z,2.00
2017-09-18T11:21:37.553Z,5.80
2017-09-18T11:24:05.721Z,2.23
2017-09-18T11:26:34.078Z,2.23
2017-09-18T11:29:02.343Z,2.87
2017-09-18T11:31:30.677Z,1.53
2017-09-18T11:33:58.951Z,4.67
2017-09-18T11:36:27.288Z,2.53
2017-09-18T11:38:55.567Z,1.60
2017-09-18T11:41:25.531Z,1.17
2017-09-18T11:43:53.692Z,1.93
2017-09-18T11:46:23.639Z,1.70
2017-09-18T11:48:54.880Z,9.20
2017-09-18T11:51:25.712Z,1.63
2017-09-18T11:53:55.510Z,2.30
2017-09-18T11:56:23.986Z,2.13
2017-09-18T11:58:52.271Z,2.80
2017-09-18T12:01:21.349Z,1.97
2017-09-18T12:03:50.555Z,2.00
2017-09-18T12:06:20.499Z,1.20
2017-09-18T12:08:50.343Z,1.90
2017-09-18T12:11:20.994Z,3.27
2017-09-18T12:13:50.799Z,1.70
2017-09-18T12:16:20.605Z,3.10
2017-09-18T12:18:50.726Z,1.90
2017-09-18T12:21:21.032Z,1.80
2017-09-18T12:23:51.170Z,2.00
2017-09-18T12:26:21.016Z,1.63
2017-09-18T12:28:49.268Z,1.50
2017-09-18T12:31:19.189Z,1.60
2017-09-18T12:33:47.355Z,1.23
2017-09-18T12:36:16.804Z,2.90
2017-09-18T12:38:45.868Z,1.97
2017-09-18T12:41:14.162Z,4.03
2017-09-18T12:43:44.634Z,1.40
2017-09-18T12:46:14.464Z,1.50
2017-09-18T12:48:44.330Z,12.90
2017-09-18T12:51:14.138Z,8.47
2017-09-18T12:53:42.354Z,1.47
2017-09-18T12:56:11.577Z,3.80
2017-09-18T12:58:40.940Z,1.60
2017-09-18T13:01:09.234Z,2.00
2017-09-18T13:03:39.203Z,2.80
2017-09-18T13:06:09.018Z,1.60
2017-09-18T13:08:37.198Z,2.00
2017-09-18T13:11:05.803Z,3.43
2017-09-18T13:13:34.152Z,1.30
2017-09-18T13:16:03.867Z,2.07
2017-09-18T13:18:34.184Z,1.20
2017-09-18T13:21:03.980Z,1.30
2017-09-18T13:23:33.870Z,1.70
2017-09-18T13:26:03.793Z,2.13
2017-09-18T13:28:34.429Z,2.70
2017-09-18T13:31:04.219Z,2.07
2017-09-18T13:33:32.472Z,1.13
2017-09-18T13:36:02.419Z,1.93
2017-09-18T13:38:32.292Z,1.10
2017-09-18T13:41:02.106Z,1.77
2017-09-18T13:43:30.694Z,1.43
2017-09-18T13:46:00.635Z,2.30
2017-09-18T13:48:30.821Z,1.50
2017-09-18T13:51:00.635Z,1.77
2017-09-18T13:53:30.754Z,1.33
2017-09-18T13:56:00.560Z,2.13
2017-09-18T13:58:30.693Z,1.93
2017-09-18T14:01:01.426Z,1.80
2017-09-18T14:03:31.550Z,2.53
2017-09-18T14:06:01.355Z,9.50
2017-09-18T14:08:31.199Z,3.17
2017-09-18T14:11:01.026Z,1.43
2017-09-18T14:13:29.211Z,2.10
2017-09-18T14:15:59.011Z,2.67
2017-09-18T14:18:27.290Z,1.30
2017-09-18T14:20:57.178Z,2.27
2017-09-18T14:23:27.513Z,4.47
2017-09-18T14:25:57.646Z,1.40
2017-09-18T14:28:25.820Z,1.60
2017-09-18T14:30:54.234Z,1.57
2017-09-18T14:33:24.582Z,1.33
2017-09-18T14:35:54.424Z,1.23
2017-09-18T14:38:24.527Z,3.30
2017-09-18T14:40:54.342Z,1.77
2017-09-18T14:43:24.164Z,2.37
2017-09-18T14:45:54.003Z,1.30
2017-09-18T14:48:24.632Z,1.50
2017-09-18T14:50:55.324Z,3.50
2017-09-18T14:53:25.134Z,1.50
2017-09-18T14:55:54.941Z,1.53
2017-09-18T14:58:25.075Z,1.83
2017-09-18T15:00:53.305Z,3.03
2017-09-18T15:03:21.560Z,1.80
2017-09-18T15:05:49.935Z,1.60
2017-09-18T15:08:18.993Z,2.27
2017-09-18T15:10:47.604Z,2.20
2017-09-18T15:13:15.883Z,3.63
2017-09-18T15:15:45.375Z,2.00
2017-09-18T15:18:13.982Z,2.00
2017-09-18T15:20:43.028Z,1.30
2017-09-18T15:23:11.349Z,2.03
2017-09-18T15:25:41.076Z,1.90
2017-09-18T15:28:10.488Z,1.97
2017-09-18T15:30:38.811Z,4.67
2017-09-18T15:33:07.403Z,2.00
2017-09-18T15:35:36.849Z,2.13
2017-09-18T15:38:05.182Z,22.17
2017-09-18T15:40:33.808Z,3.20
2017-09-18T15:43:02.309Z,1.90
2017-09-18T15:45:30.841Z,1.20
2017-09-18T15:47:59.494Z,4.03
2017-09-18T15:50:27.772Z,1.70
2017-09-18T15:52:56.048Z,2.30
2017-09-18T15:55:24.712Z,1.60
2017-09-18T15:57:54.698Z,3.17
2017-09-18T16:00:23.016Z,1.67
2017-09-18T16:02:53.283Z,2.63
2017-09-18T16:05:22.315Z,3.00
2017-09-18T16:07:51.366Z,1.90
2017-09-18T16:10:20.040Z,2.17
2017-09-18T16:12:49.850Z,1.87
2017-09-18T16:15:18.139Z,2.10
2017-09-18T16:17:46.827Z,2.07
2017-09-18T16:20:15.760Z,2.07
2017-09-18T16:22:44.050Z,2.00
2017-09-18T16:25:13.113Z,2.60
2017-09-18T16:27:41.440Z,1.73
2017-09-18T16:30:10.068Z,3.00
2017-09-18T16:32:38.374Z,2.17
2017-09-18T16:35:06.697Z,2.23
2017-09-18T16:37:36.074Z,3.63
2017-09-18T16:40:04.441Z,2.30
2017-09-18T16:42:33.607Z,2.10
2017-09-18T16:45:02.235Z,2.13
2017-09-18T16:47:30.539Z,3.60
2017-09-18T16:49:58.840Z,2.90
2017-09-18T16:52:27.982Z,3.00
2017-09-18T16:54:56.277Z,4.70
2017-09-18T16:57:24.848Z,2.93
2017-09-18T16:59:53.136Z,5.20
2017-09-18T17:02:21.954Z,3.70
2017-09-18T17:04:51.042Z,8.60
2017-09-18T17:07:19.325Z,9.07
2017-09-18T17:09:47.604Z,5.57
2017-09-18T17:12:16.281Z,4.57
2017-09-18T17:14:44.732Z,3.97
2017-09-18T17:17:13.769Z,4.27
2017-09-18T17:19:42.419Z,3.93
2017-09-18T17:22:10.715Z,3.37
2017-09-18T17:24:39.790Z,3.53
2017-09-18T17:27:09.462Z,3.13
2017-09-18T17:29:37.735Z,3.40
2017-09-18T17:32:06.073Z,4.30
2017-09-18T17:34:35.407Z,4.47
2017-09-18T17:37:03.700Z,4.57
2017-09-18T17:39:32.015Z,5.10
2017-09-18T17:42:00.698Z,7.17
2017-09-18T17:44:28.956Z,5.83
2017-09-18T17:46:57.327Z,5.47
2017-09-18T17:49:26.067Z,5.57
2017-09-18T17:51:58.067Z,7.30
2017-09-18T17:54:26.690Z,4.30
2017-09-18T17:56:54.967Z,7.77
2017-09-18T17:59:23.372Z,7.73
2017-09-18T18:01:51.938Z,6.50
2017-09-18T18:04:20.751Z,6.03
2017-09-18T18:06:49.410Z,5.27
2017-09-18T18:09:18.018Z,6.53
2017-09-18T18:11:46.288Z,6.97
2017-09-18T18:14:14.566Z,5.80
2017-09-18T18:16:43.160Z,5.53
2017-09-18T18:19:11.462Z,6.27
2017-09-18T18:21:39.758Z,5.77
2017-09-18T18:24:08.332Z,7.30
2017-09-18T18:26:36.636Z,7.03
2017-09-18T18:29:06.743Z,5.60
2017-09-18T18:31:36.124Z,6.30
2017-09-18T18:34:04.425Z,7.97
2017-09-18T18:36:33.154Z,7.27
2017-09-18T18:39:02.208Z,7.53
2017-09-18T18:41:30.477Z,7.00
2017-09-18T18:43:59.464Z,7.30
2017-09-18T18:46:27.770Z,8.37
2017-09-18T18:48:56.067Z,8.77
2017-09-18T18:51:24.841Z,11.13
2017-09-18T18:53:53.487Z,8.33
2017-09-18T18:56:22.525Z,6.77
2017-09-18T18:58:51.149Z,8.30
2017-09-18T19:01:19.415Z,11.07
2017-09-18T19:03:48.525Z,7.20
2017-09-18T19:06:18.368Z,7.20
2017-09-18T19:08:47.446Z,9.57
2017-09-18T19:11:16.091Z,6.83
2017-09-18T19:13:44.393Z,6.27
2017-09-18T19:16:12.708Z,13.73
2017-09-18T19:18:41.339Z,14.97
2017-09-18T19:21:09.624Z,9.03
2017-09-18T19:23:37.933Z,9.87
2017-09-18T19:26:06.606Z,9.97
2017-09-18T19:28:34.932Z,8.17
2017-09-18T19:31:04.921Z,8.40
2017-09-18T19:33:33.502Z,11.20
2017-09-18T19:36:02.246Z,10.40
2017-09-18T19:38:31.280Z,10.70
2017-09-18T19:41:01.046Z,15.07
2017-09-18T19:43:29.408Z,13.80
2017-09-18T19:45:57.692Z,11.93
2017-09-18T19:48:26.348Z,9.80
2017-09-18T19:50:54.680Z,11.90
2017-09-18T19:53:23.634Z,13.97
2017-09-18T19:55:52.240Z,13.43
2017-09-18T19:58:20.572Z,15.70
2017-09-18T20:00:50.455Z,10.10
2017-09-18T20:03:19.122Z,12.20
2017-09-18T20:05:47.425Z,11.27
2017-09-18T20:08:15.720Z,12.73
2017-09-18T20:10:45.075Z,13.87
2017-09-18T20:13:13.425Z,14.00
2017-09-18T20:15:42.496Z,13.80
2017-09-18T20:18:11.159Z,12.00
2017-09-18T20:20:39.515Z,10.97
2017-09-18T20:23:10.776Z,14.50
2017-09-18T20:25:39.600Z,11.37
2017-09-18T20:28:08.790Z,16.60
2017-09-18T20:30:37.115Z,12.93
2017-09-18T20:33:06.189Z,10.80
2017-09-18T20:35:35.701Z,10.37
2017-09-18T20:38:04.370Z,13.90
2017-09-18T20:40:32.661Z,15.43
2017-09-18T20:43:00.971Z,11.93
2017-09-18T20:45:30.355Z,14.87
2017-09-18T20:47:58.650Z,13.90
2017-09-18T20:50:27.715Z,11.47
2017-09-18T20:52:56.507Z,11.20
2017-09-18T20:55:24.812Z,12.20
2017-09-18T20:57:53.879Z,13.43
2017-09-18T21:00:22.215Z,15.80
2017-09-18T21:02:51.733Z,13.23
2017-09-18T21:05:21.505Z,11.23
2017-09-18T21:07:51.285Z,11.63
2017-09-18T21:10:19.608Z,12.70
2017-09-18T21:12:48.579Z,10.57
2017-09-18T21:15:16.918Z,12.33
2017-09-18T21:17:45.965Z,14.10
2017-09-18T21:20:14.286Z,13.97
2017-09-18T21:22:42.650Z,19.13
2017-09-18T21:25:11.339Z,13.30
2017-09-18T21:27:39.651Z,14.33
2017-09-18T21:30:08.843Z,10.33
2017-09-18T21:32:37.167Z,11.50
2017-09-18T21:35:05.495Z,13.80
2017-09-18T21:37:33.799Z,11.57
2017-09-18T21:40:02.847Z,12.70
2017-09-18T21:42:31.175Z,11.70
2017-09-18T21:45:00.646Z,14.73
2017-09-18T21:47:28.982Z,14.93
2017-09-18T21:49:58.077Z,12.43
2017-09-18T21:52:26.359Z,9.73
2017-09-18T21:54:55.414Z,12.53
2017-09-18T21:57:23.742Z,9.80
2017-09-18T21:59:52.840Z,10.30
2017-09-18T22:02:21.891Z,9.90
2017-09-18T22:04:50.186Z,11.20
2017-09-18T22:07:18.509Z,11.17
2017-09-18T22:09:47.675Z,10.73
2017-09-18T22:12:15.978Z,12.37
2017-09-18T22:14:46.176Z,10.00
2017-09-18T22:17:14.487Z,10.83
2017-09-18T22:19:43.081Z,10.80
2017-09-18T22:22:11.366Z,9.70
2017-09-18T22:24:40.440Z,12.53
2017-09-18T22:27:09.615Z,10.03
2017-09-18T22:29:37.895Z,10.30
2017-09-18T22:32:06.469Z,13.70
2017-09-18T22:34:34.787Z,10.83
2017-09-18T22:37:04.148Z,10.30
2017-09-18T22:39:32.754Z,10.60
2017-09-18T22:42:01.060Z,13.13
2017-09-18T22:44:30.874Z,11.97
2017-09-18T22:46:59.458Z,12.97
2017-09-18T22:49:27.751Z,11.50
2017-09-18T22:51:56.096Z,12.20
2017-09-18T22:54:24.716Z,14.10
2017-09-18T22:56:53.003Z,13.63
2017-09-18T22:59:21.341Z,13.90
2017-09-18T23:01:50.648Z,13.40
2017-09-18T23:04:18.937Z,10.97
2017-09-18T23:06:47.259Z,12.23
2017-09-18T23:09:15.592Z,15.20
2017-09-18T23:11:43.907Z,13.70
2017-09-18T23:14:12.291Z,14.23
2017-09-18T23:16:40.599Z,15.43
2017-09-18T23:19:08.953Z,17.03
2017-09-18T23:21:37.278Z,15.53
2017-09-18T23:24:05.567Z,16.23
2017-09-18T23:26:33.883Z,16.30
2017-09-18T23:29:02.189Z,22.90
2017-09-18T23:31:30.784Z,18.60
2017-09-18T23:33:59.088Z,22.40
2017-09-18T23:36:27.393Z,16.60
2017-09-18T23:38:55.962Z,20.60
2017-09-18T23:41:25.028Z,16.20
2017-09-18T23:43:53.335Z,16.73
2017-09-18T23:46:22.023Z,15.13
2017-09-18T23:48:51.218Z,13.80
2017-09-18T23:51:19.509Z,16.50
2017-09-18T23:53:48.184Z,15.53
2017-09-18T23:56:17.995Z,14.83
2017-09-18T23:58:46.315Z,15.60
